Markham, Washington
Current Conditions -  °F | °C
As of 9:53 AM on Friday 24 Oct 2014 (Local Time) from KHQM Reporting Station
Haze Haze  
Wind Chill: 50°   Ceiling: 600
Heat Index: 50°   Visibility: 6mi
Dew Point: 49°   Wind: 9mph
Humidity: 96%   Direction: 50°NE
Pressure: 30.01"   Gusts: NA
Location:  47.1445°N, 123.771°W
Report Text: KHQM 241653Z AUTO 05008KT 6SM BR OVC006 10/09 A3001 RMK AO2 SLP166 T01000094
Loading
Personal Weather Stations






























Interactive Weather Map
Tropical Storm Tracking
New forecast layout! Learn more

10-Day Weather Forecast

Advertisements
Track Severe Weather on mobile